createdAt,value
2023-08-12T00:01:32.288Z,22.65
2023-08-12T00:04:00.803Z,29.23
2023-08-12T00:06:29.464Z,24.38
2023-08-12T00:08:59.243Z,30.92
2023-08-12T00:11:27.968Z,29.88
2023-08-12T00:13:56.867Z,31.48
2023-08-12T00:16:27.511Z,43.15
2023-08-12T00:18:56.366Z,33.63
2023-08-12T00:21:30.583Z,48.85
2023-08-12T00:24:00.627Z,26.45
2023-08-12T00:26:29.796Z,38.47
2023-08-12T00:28:58.631Z,36.55
2023-08-12T00:31:29.016Z,17.17
2023-08-12T00:33:58.694Z,10.25
2023-08-12T00:36:27.542Z,14.80
2023-08-12T00:39:00.551Z,15.13
2023-08-12T00:41:30.043Z,30.38
2023-08-12T00:43:59.178Z,17.23
2023-08-12T00:46:28.080Z,34.55
2023-08-12T00:48:57.042Z,25.02
2023-08-12T00:51:29.844Z,22.77
2023-08-12T00:54:01.398Z,20.20
2023-08-12T00:56:31.527Z,13.90
2023-08-12T00:59:02.418Z,13.65
2023-08-12T01:01:33.734Z,18.95
2023-08-12T01:04:02.371Z,13.07
2023-08-12T01:06:30.935Z,10.07
2023-08-12T01:08:59.539Z,10.90
2023-08-12T01:11:38.843Z,10.25
2023-08-12T01:14:13.456Z,13.50
2023-08-12T01:16:47.020Z,11.07
2023-08-12T01:19:26.656Z,11.85
2023-08-12T01:21:56.398Z,9.80
2023-08-12T01:24:28.115Z,10.20
2023-08-12T01:26:56.837Z,15.57
2023-08-12T01:29:25.384Z,8.85
2023-08-12T01:31:57.899Z,10.82
2023-08-12T01:34:35.189Z,10.40
2023-08-12T01:37:06.343Z,9.80
2023-08-12T01:39:37.856Z,9.68
2023-08-12T01:42:07.988Z,11.35
2023-08-12T01:44:36.685Z,10.60
2023-08-12T01:47:05.707Z,9.60
2023-08-12T01:49:37.257Z,13.48
2023-08-12T01:52:06.276Z,10.50
2023-08-12T01:54:36.406Z,10.50
2023-08-12T01:57:07.372Z,11.60
2023-08-12T01:59:36.643Z,14.18
2023-08-12T02:02:06.002Z,10.25
2023-08-12T02:04:37.885Z,13.73
2023-08-12T02:07:07.187Z,11.73
2023-08-12T02:09:37.046Z,14.23
2023-08-12T02:12:06.622Z,12.77
2023-08-12T02:14:35.366Z,10.82
2023-08-12T02:17:04.037Z,9.95
2023-08-12T02:19:32.910Z,10.57
2023-08-12T02:22:01.685Z,13.75
2023-08-12T02:24:30.711Z,11.23
2023-08-12T02:27:03.165Z,9.70
2023-08-12T02:29:31.649Z,12.30
2023-08-12T02:32:00.116Z,11.80
2023-08-12T02:34:28.889Z,13.35
2023-08-12T02:37:00.507Z,10.55
2023-08-12T02:39:29.258Z,9.82
2023-08-12T02:41:58.074Z,12.32
2023-08-12T02:44:28.925Z,11.82
2023-08-12T02:46:57.801Z,10.63
2023-08-12T02:49:26.074Z,12.30
2023-08-12T02:51:55.437Z,11.20
2023-08-12T02:54:23.962Z,10.45
2023-08-12T02:56:53.006Z,11.68
2023-08-12T02:59:21.762Z,16.33
2023-08-12T03:01:52.049Z,12.00
2023-08-12T03:04:20.785Z,12.55
2023-08-12T03:06:49.975Z,8.68
2023-08-12T03:09:21.240Z,12.35
2023-08-12T03:11:54.571Z,10.15
2023-08-12T03:14:23.395Z,12.35
2023-08-12T03:16:53.652Z,15.88
2023-08-12T03:19:22.587Z,10.60
2023-08-12T03:21:51.309Z,11.90
2023-08-12T03:24:19.993Z,10.57
2023-08-12T03:26:52.770Z,11.02
2023-08-12T03:29:21.698Z,12.35
2023-08-12T03:31:55.031Z,11.20
2023-08-12T03:34:25.307Z,11.80
2023-08-12T03:36:54.081Z,11.77
2023-08-12T03:39:22.979Z,12.48
2023-08-12T03:41:54.120Z,13.63
2023-08-12T03:44:23.427Z,10.23
2023-08-12T03:46:55.154Z,11.35
2023-08-12T03:49:24.827Z,8.70
2023-08-12T03:51:55.998Z,11.25
2023-08-12T03:54:24.745Z,10.82
2023-08-12T03:56:53.613Z,11.60
2023-08-12T03:59:23.020Z,9.20
2023-08-12T04:01:51.784Z,11.20
2023-08-12T04:04:22.612Z,11.73
2023-08-12T04:06:53.358Z,12.30
2023-08-12T04:09:22.917Z,9.70
2023-08-12T04:11:52.082Z,11.05
2023-08-12T04:14:20.782Z,8.40
2023-08-12T04:16:49.324Z,9.75
2023-08-12T04:19:21.494Z,9.65
2023-08-12T04:21:50.485Z,10.77
2023-08-12T04:24:20.464Z,10.60
2023-08-12T04:26:50.081Z,12.70
2023-08-12T04:29:19.425Z,15.73
2023-08-12T04:31:51.525Z,12.52
2023-08-12T04:34:21.764Z,13.98
2023-08-12T04:36:51.042Z,13.00
2023-08-12T04:39:19.782Z,15.80
2023-08-12T04:41:48.735Z,11.25
2023-08-12T04:44:18.238Z,8.55
2023-08-12T04:46:47.850Z,12.80
2023-08-12T04:49:18.330Z,10.05
2023-08-12T04:51:48.619Z,13.48
2023-08-12T04:54:17.357Z,14.57
2023-08-12T04:56:45.999Z,12.05
2023-08-12T04:59:15.057Z,10.18
2023-08-12T05:01:58.583Z,10.30
2023-08-12T05:04:34.907Z,11.15
2023-08-12T05:09:36.493Z,9.93
2023-08-12T05:12:05.653Z,10.10
2023-08-12T05:14:34.535Z,9.95
2023-08-12T05:17:04.068Z,10.02
2023-08-12T05:19:33.398Z,9.60
2023-08-12T05:22:07.017Z,9.43
2023-08-12T05:24:35.964Z,10.90
2023-08-12T05:27:05.295Z,12.02
2023-08-12T05:29:33.966Z,9.50
2023-08-12T05:32:03.453Z,10.30
2023-08-12T05:34:32.872Z,12.70
2023-08-12T05:37:01.937Z,13.90
2023-08-12T05:39:32.113Z,9.85
2023-08-12T05:42:01.538Z,9.95
2023-08-12T05:44:30.059Z,10.38
2023-08-12T05:46:58.431Z,11.55
2023-08-12T05:49:27.147Z,8.73
2023-08-12T05:51:55.940Z,10.45
2023-08-12T05:54:24.876Z,8.65
2023-08-12T05:56:55.321Z,11.98
2023-08-12T05:59:23.953Z,10.52
2023-08-12T06:01:52.543Z,9.13
2023-08-12T06:04:21.064Z,9.45
2023-08-12T06:06:49.768Z,10.55
2023-08-12T06:09:18.392Z,13.02
2023-08-12T06:11:46.976Z,10.68
2023-08-12T06:14:17.165Z,12.98
2023-08-12T06:16:44.755Z,10.05
2023-08-12T06:19:13.258Z,10.57
2023-08-12T06:21:42.119Z,10.43
2023-08-12T06:24:11.003Z,9.80
2023-08-12T06:26:39.652Z,12.10
2023-08-12T06:29:08.262Z,10.68
2023-08-12T06:31:38.679Z,12.95
2023-08-12T06:34:08.381Z,8.88
2023-08-12T06:36:37.718Z,9.23
2023-08-12T06:39:07.477Z,7.57
2023-08-12T06:41:36.173Z,7.90
2023-08-12T06:44:06.009Z,7.55
2023-08-12T06:46:35.401Z,6.88
2023-08-12T06:49:06.135Z,8.73
2023-08-12T06:51:37.832Z,5.68
2023-08-12T06:54:07.322Z,8.93
2023-08-12T06:56:36.042Z,7.00
2023-08-12T06:59:04.880Z,5.75
2023-08-12T07:01:33.534Z,7.72
2023-08-12T07:04:02.956Z,3.80
2023-08-12T07:06:33.324Z,6.88
2023-08-12T07:09:01.934Z,3.78
2023-08-12T07:11:33.245Z,6.00
2023-08-12T07:14:02.398Z,4.80
2023-08-12T07:16:31.803Z,4.47
2023-08-12T07:19:00.569Z,5.53
2023-08-12T07:21:29.209Z,3.72
2023-08-12T07:24:03.888Z,6.57
2023-08-12T07:26:33.080Z,5.63
2023-08-12T07:29:02.618Z,4.18
2023-08-12T07:31:31.894Z,7.32
2023-08-12T07:34:01.193Z,6.68
2023-08-12T07:36:30.286Z,6.35
2023-08-12T07:39:00.621Z,6.88
2023-08-12T07:41:29.432Z,2.90
2023-08-12T07:43:58.531Z,3.20
2023-08-12T07:46:27.592Z,4.45
2023-08-12T07:48:56.252Z,6.88
2023-08-12T07:51:25.205Z,4.10
2023-08-12T07:53:54.089Z,5.50
2023-08-12T07:56:24.925Z,6.13
2023-08-12T07:58:53.615Z,4.23
2023-08-12T08:01:23.036Z,3.58
2023-08-12T08:03:52.484Z,4.20
2023-08-12T08:06:21.325Z,3.50
2023-08-12T08:08:49.968Z,5.65
2023-08-12T08:11:18.642Z,2.95
2023-08-12T08:13:48.623Z,3.92
2023-08-12T08:16:17.770Z,4.57
2023-08-12T08:18:46.977Z,4.90
2023-08-12T08:21:16.130Z,5.45
2023-08-12T08:23:46.029Z,5.88
2023-08-12T08:26:16.931Z,4.00
2023-08-12T08:28:46.238Z,4.28
2023-08-12T08:31:16.814Z,3.88
2023-08-12T08:33:45.818Z,5.20
2023-08-12T08:36:14.823Z,3.33
2023-08-12T08:38:43.960Z,4.38
2023-08-12T08:41:13.184Z,5.05
2023-08-12T08:43:45.186Z,4.82
2023-08-12T08:46:18.078Z,12.10
2023-08-12T08:48:48.080Z,4.88
2023-08-12T08:51:17.339Z,5.63
2023-08-12T08:53:46.488Z,6.30
2023-08-12T08:56:16.279Z,4.18
2023-08-12T08:58:45.206Z,5.22
2023-08-12T09:01:16.900Z,3.85
2023-08-12T09:03:46.093Z,3.95
2023-08-12T09:06:14.970Z,3.25
2023-08-12T09:08:47.574Z,2.90
2023-08-12T09:11:18.133Z,3.63
2023-08-12T09:13:49.324Z,4.18
2023-08-12T09:16:19.841Z,10.20
2023-08-12T09:18:51.018Z,3.90
2023-08-12T09:21:20.035Z,5.55
2023-08-12T09:23:49.161Z,5.05
2023-08-12T09:26:19.479Z,7.70
2023-08-12T09:28:49.359Z,6.70
2023-08-12T09:31:28.134Z,3.42
2023-08-12T09:34:01.013Z,3.42
2023-08-12T09:36:36.769Z,4.80
2023-08-12T09:39:10.385Z,4.45
2023-08-12T09:41:40.849Z,3.10
2023-08-12T09:44:09.431Z,4.43
2023-08-12T09:46:40.612Z,3.70
2023-08-12T09:49:09.635Z,4.70
2023-08-12T09:51:41.083Z,5.28
2023-08-12T09:54:11.583Z,6.10
2023-08-12T09:56:43.149Z,3.40
2023-08-12T09:59:13.600Z,3.65
2023-08-12T10:01:45.812Z,2.45
2023-08-12T10:04:19.558Z,6.68
2023-08-12T10:06:50.560Z,4.32
2023-08-12T10:11:49.093Z,2.90
2023-08-12T10:14:18.640Z,4.05
2023-08-12T10:16:49.083Z,3.72
2023-08-12T10:19:19.341Z,4.28
2023-08-12T10:21:49.879Z,4.03
2023-08-12T10:24:19.333Z,5.68
2023-08-12T10:26:48.876Z,3.22
2023-08-12T10:29:18.111Z,1.92
2023-08-12T10:31:49.700Z,4.15
2023-08-12T10:34:22.943Z,7.35
2023-08-12T10:37:02.847Z,4.05
2023-08-12T10:39:35.295Z,3.17
2023-08-12T10:42:04.143Z,5.22
2023-08-12T10:44:41.908Z,4.88
2023-08-12T10:47:13.386Z,4.30
2023-08-12T10:49:46.108Z,4.70
2023-08-12T10:52:29.809Z,4.70
2023-08-12T10:55:19.056Z,2.70
2023-08-12T10:57:48.439Z,4.78
2023-08-12T11:00:23.079Z,3.03
2023-08-12T11:02:54.171Z,2.55
2023-08-12T11:05:23.407Z,4.13
2023-08-12T11:07:59.598Z,3.63
2023-08-12T11:10:31.931Z,5.60
2023-08-12T11:13:03.793Z,4.28
2023-08-12T11:15:34.916Z,3.33
2023-08-12T11:18:07.099Z,4.63
2023-08-12T11:20:37.385Z,3.13
2023-08-12T11:23:10.826Z,3.83
2023-08-12T11:25:40.859Z,5.35
2023-08-12T11:28:13.942Z,5.07
2023-08-12T11:30:44.921Z,2.22
2023-08-12T11:33:14.989Z,3.97
2023-08-12T11:35:43.503Z,4.60
2023-08-12T11:38:14.521Z,2.95
2023-08-12T11:40:43.052Z,3.70
2023-08-12T11:43:11.565Z,4.15
2023-08-12T11:45:44.388Z,4.10
2023-08-12T11:48:14.455Z,4.53
2023-08-12T11:50:45.237Z,10.40
2023-08-12T11:53:13.788Z,5.78
2023-08-12T11:55:42.409Z,52.60
2023-08-12T11:58:11.223Z,32.10
2023-08-12T12:00:40.038Z,10.05
2023-08-12T12:03:09.186Z,10.27
2023-08-12T12:05:39.036Z,7.57
2023-08-12T12:08:10.189Z,4.18
2023-08-12T12:10:38.519Z,15.13
2023-08-12T12:13:10.217Z,9.93
2023-08-12T12:15:41.172Z,5.13
2023-08-12T12:18:12.326Z,4.13
2023-08-12T12:20:57.777Z,2.47
2023-08-12T12:23:30.258Z,14.55
2023-08-12T12:26:02.838Z,6.63
2023-08-12T12:28:34.179Z,5.93
2023-08-12T12:31:03.089Z,6.15
2023-08-12T12:33:31.626Z,3.80
2023-08-12T12:36:04.081Z,7.10
2023-08-12T12:38:34.388Z,3.72
2023-08-12T12:41:02.912Z,3.40
2023-08-12T12:43:31.293Z,4.45
2023-08-12T12:45:59.726Z,6.10
2023-08-12T12:48:29.847Z,4.80
2023-08-12T12:50:58.909Z,5.03
2023-08-12T12:53:28.663Z,2.90
2023-08-12T12:56:05.062Z,2.53
2023-08-12T12:58:34.337Z,4.78
2023-08-12T13:01:03.074Z,4.88
2023-08-12T13:03:32.576Z,1.60
2023-08-12T13:06:01.980Z,2.75
2023-08-12T13:08:32.954Z,8.23
2023-08-12T13:11:01.594Z,2.45
2023-08-12T13:13:30.368Z,5.75
2023-08-12T13:15:59.259Z,3.15
2023-08-12T13:18:27.613Z,2.28
2023-08-12T13:20:56.422Z,3.42
2023-08-12T13:23:24.742Z,4.07
2023-08-12T13:25:55.169Z,3.47
2023-08-12T13:28:23.775Z,2.60
2023-08-12T13:30:52.066Z,8.77
2023-08-12T13:33:20.772Z,3.53
2023-08-12T13:35:49.468Z,3.22
2023-08-12T13:38:18.277Z,3.38
2023-08-12T13:40:46.620Z,2.63
2023-08-12T13:43:17.183Z,2.05
2023-08-12T13:45:45.579Z,1.92
2023-08-12T13:48:14.079Z,4.57
2023-08-12T13:50:43.244Z,8.80
2023-08-12T13:53:14.204Z,7.20
2023-08-12T13:55:43.348Z,5.15
2023-08-12T13:58:15.692Z,4.45
2023-08-12T14:00:45.391Z,3.63
2023-08-12T14:03:13.662Z,2.85
2023-08-12T14:05:42.348Z,3.03
2023-08-12T14:08:10.602Z,3.42
2023-08-12T14:10:38.834Z,4.43
2023-08-12T14:13:08.048Z,4.55
2023-08-12T14:15:38.083Z,3.03
2023-08-12T14:18:08.206Z,4.72
2023-08-12T14:20:36.633Z,1.92
2023-08-12T14:23:05.543Z,2.90
2023-08-12T14:25:33.980Z,4.20
2023-08-12T14:28:02.499Z,4.05
2023-08-12T14:30:30.765Z,3.72
2023-08-12T14:33:00.298Z,6.22
2023-08-12T14:35:30.819Z,2.65
2023-08-12T14:37:59.030Z,4.22
2023-08-12T14:40:28.890Z,4.32
2023-08-12T14:42:57.699Z,3.85
2023-08-12T14:45:26.135Z,3.78
2023-08-12T14:47:54.513Z,4.60
2023-08-12T14:50:23.191Z,4.18
2023-08-12T14:52:52.901Z,6.40
2023-08-12T14:55:22.404Z,15.30
2023-08-12T14:57:51.604Z,14.60
2023-08-12T15:00:20.999Z,4.28
2023-08-12T15:02:49.456Z,4.00
2023-08-12T15:05:18.933Z,2.30
2023-08-12T15:07:47.203Z,3.50
2023-08-12T15:10:16.935Z,5.65
2023-08-12T15:12:45.604Z,5.85
2023-08-12T15:15:14.820Z,4.20
2023-08-12T15:17:43.099Z,3.03
2023-08-12T15:20:12.454Z,5.57
2023-08-12T15:22:40.645Z,5.57
2023-08-12T15:25:09.929Z,5.85
2023-08-12T15:27:39.668Z,4.93
2023-08-12T15:30:09.281Z,5.78
2023-08-12T15:32:41.492Z,2.70
2023-08-12T15:35:11.958Z,4.57
2023-08-12T15:37:42.161Z,1.88
2023-08-12T15:40:11.503Z,5.38
2023-08-12T15:42:44.758Z,2.88
2023-08-12T15:45:14.535Z,4.43
2023-08-12T15:47:43.008Z,5.70
2023-08-12T15:50:13.545Z,5.20
2023-08-12T15:52:41.939Z,8.70
2023-08-12T15:55:10.637Z,5.50
2023-08-12T15:57:38.937Z,4.18
2023-08-12T16:00:11.905Z,5.65
2023-08-12T16:02:41.868Z,4.82
2023-08-12T16:05:10.895Z,5.00
2023-08-12T16:07:41.175Z,3.50
2023-08-12T16:10:10.624Z,3.40
2023-08-12T16:12:39.094Z,5.82
2023-08-12T16:15:09.761Z,5.07
2023-08-12T16:17:38.088Z,11.97
2023-08-12T16:20:09.107Z,4.30
2023-08-12T16:22:37.403Z,3.85
2023-08-12T16:25:06.579Z,4.05
2023-08-12T16:27:35.021Z,6.13
2023-08-12T16:30:03.413Z,8.15
2023-08-12T16:32:33.209Z,3.28
2023-08-12T16:35:01.966Z,6.28
2023-08-12T16:37:30.405Z,4.65
2023-08-12T16:39:59.356Z,5.25
2023-08-12T16:42:28.268Z,6.78
2023-08-12T16:44:56.871Z,3.50
2023-08-12T16:47:25.709Z,12.02
2023-08-12T16:49:55.464Z,7.35
2023-08-12T16:52:25.949Z,6.40
2023-08-12T16:54:54.245Z,8.57
2023-08-12T16:57:22.680Z,8.63
2023-08-12T16:59:52.175Z,9.55
2023-08-12T17:02:20.673Z,14.55
2023-08-12T17:04:49.213Z,11.02
2023-08-12T17:07:22.376Z,8.00
2023-08-12T17:09:50.674Z,6.22
2023-08-12T17:12:19.227Z,9.60
2023-08-12T17:14:48.466Z,6.90
2023-08-12T17:17:17.132Z,7.20
2023-08-12T17:19:45.497Z,4.22
2023-08-12T17:22:14.237Z,4.85
2023-08-12T17:24:44.721Z,7.70
2023-08-12T17:27:13.056Z,4.40
2023-08-12T17:29:41.452Z,7.93
2023-08-12T17:32:09.667Z,6.30
2023-08-12T17:34:38.557Z,7.05
2023-08-12T17:37:06.902Z,7.03
2023-08-12T17:39:36.462Z,6.18
2023-08-12T17:42:06.459Z,5.78
2023-08-12T17:44:35.382Z,3.75
2023-08-12T17:47:03.816Z,9.23
2023-08-12T17:49:32.658Z,10.05
2023-08-12T17:52:02.375Z,5.35
2023-08-12T17:54:31.161Z,8.95
2023-08-12T17:56:59.294Z,5.95
2023-08-12T17:59:28.898Z,4.82
2023-08-12T18:01:57.339Z,4.72
2023-08-12T18:04:26.742Z,3.50
2023-08-12T18:06:55.189Z,10.75
2023-08-12T18:09:24.110Z,8.15
2023-08-12T18:11:52.496Z,5.30
2023-08-12T18:14:22.576Z,8.25
2023-08-12T18:16:52.421Z,6.35
2023-08-12T18:19:23.802Z,5.50
2023-08-12T18:21:52.073Z,7.30
2023-08-12T18:24:20.217Z,9.75
2023-08-12T18:26:48.496Z,9.63
2023-08-12T18:29:17.254Z,6.85
2023-08-12T18:31:45.626Z,8.82
2023-08-12T18:34:15.146Z,10.57
2023-08-12T18:36:43.824Z,6.95
2023-08-12T18:39:12.227Z,10.25
2023-08-12T18:41:40.907Z,7.47
2023-08-12T18:44:09.523Z,7.25
2023-08-12T18:46:38.226Z,6.63
2023-08-12T18:49:06.967Z,5.72
2023-08-12T18:51:36.650Z,5.72
2023-08-12T18:54:05.772Z,4.43
2023-08-12T18:56:34.365Z,8.02
2023-08-12T18:59:02.628Z,3.67
2023-08-12T19:01:30.915Z,6.03
2023-08-12T19:03:59.456Z,10.57
2023-08-12T19:06:27.971Z,7.68
2023-08-12T19:08:57.856Z,15.18
2023-08-12T19:11:26.360Z,8.30
2023-08-12T19:13:54.833Z,6.20
2023-08-12T19:16:23.261Z,6.53
2023-08-12T19:18:52.150Z,10.00
2023-08-12T19:21:20.829Z,8.50
2023-08-12T19:23:51.449Z,11.27
2023-08-12T19:26:25.142Z,7.43
2023-08-12T19:28:53.700Z,10.23
2023-08-12T19:31:21.981Z,8.48
2023-08-12T19:33:51.053Z,7.05
2023-08-12T19:36:19.391Z,7.22
2023-08-12T19:38:47.950Z,17.95
2023-08-12T19:41:17.373Z,6.53
2023-08-12T19:43:47.768Z,8.65
2023-08-12T19:46:16.915Z,7.18
2023-08-12T19:48:55.809Z,10.00
2023-08-12T19:51:24.163Z,7.95
2023-08-12T19:53:52.929Z,7.40
2023-08-12T19:56:21.162Z,8.70
2023-08-12T19:58:51.107Z,7.68
2023-08-12T20:01:19.914Z,9.52
2023-08-12T20:03:48.570Z,9.73
2023-08-12T20:06:17.503Z,8.82
2023-08-12T20:08:46.120Z,11.02
2023-08-12T20:11:14.621Z,9.45
2023-08-12T20:13:43.089Z,7.38
2023-08-12T20:16:12.796Z,8.35
2023-08-12T20:18:41.619Z,8.85
2023-08-12T20:21:09.935Z,7.90
2023-08-12T20:23:38.300Z,5.85
2023-08-12T20:26:06.812Z,6.20
2023-08-12T20:28:35.336Z,8.57
2023-08-12T20:31:04.961Z,5.88
2023-08-12T20:33:35.549Z,5.50
2023-08-12T20:36:04.168Z,6.43
2023-08-12T20:38:33.000Z,8.75
2023-08-12T20:41:02.796Z,5.85
2023-08-12T20:43:31.282Z,6.72
2023-08-12T20:45:59.839Z,6.43
2023-08-12T20:48:28.622Z,7.25
2023-08-12T20:51:01.949Z,5.53
2023-08-12T20:53:32.453Z,5.85
2023-08-12T20:56:01.245Z,6.13
2023-08-12T20:58:29.885Z,8.32
2023-08-12T21:00:59.067Z,9.90
2023-08-12T21:03:27.933Z,4.45
2023-08-12T21:05:56.410Z,5.50
2023-08-12T21:08:27.429Z,9.98
2023-08-12T21:10:56.031Z,7.78
2023-08-12T21:13:24.364Z,5.32
2023-08-12T21:15:53.218Z,6.75
2023-08-12T21:18:21.898Z,11.10
2023-08-12T21:20:50.405Z,7.70
2023-08-12T21:23:21.119Z,8.25
2023-08-12T21:25:51.163Z,6.63
2023-08-12T21:28:20.025Z,7.72
2023-08-12T21:30:51.808Z,5.28
2023-08-12T21:33:20.843Z,7.22
2023-08-12T21:35:50.159Z,8.43
2023-08-12T21:38:19.306Z,7.18
2023-08-12T21:40:48.187Z,6.43
2023-08-12T21:43:18.656Z,4.93
2023-08-12T21:45:47.941Z,8.48
2023-08-12T21:48:16.851Z,6.75
2023-08-12T21:50:45.791Z,8.15
2023-08-12T21:53:14.376Z,5.40
2023-08-12T21:55:43.810Z,6.13
2023-08-12T21:58:12.104Z,5.05
2023-08-12T22:00:42.196Z,8.48
2023-08-12T22:03:11.067Z,6.22
2023-08-12T22:05:39.349Z,7.13
2023-08-12T22:08:08.262Z,9.00
2023-08-12T22:10:36.683Z,6.32
2023-08-12T22:13:06.972Z,5.95
2023-08-12T22:15:35.567Z,11.13
2023-08-12T22:18:06.025Z,7.03
2023-08-12T22:20:34.716Z,5.32
2023-08-12T22:23:03.914Z,5.97
2023-08-12T22:25:32.377Z,6.65
2023-08-12T22:28:00.912Z,7.93
2023-08-12T22:30:29.900Z,9.77
2023-08-12T22:32:58.652Z,5.57
2023-08-12T22:35:28.764Z,9.95
2023-08-12T22:37:57.207Z,7.65
2023-08-12T22:40:26.096Z,6.97
2023-08-12T22:42:56.785Z,6.78
2023-08-12T22:45:25.440Z,9.27
2023-08-12T22:47:54.218Z,8.10
2023-08-12T22:50:22.882Z,7.75
2023-08-12T22:52:52.682Z,8.18
2023-08-12T22:55:21.801Z,8.15
2023-08-12T22:57:50.918Z,8.77
2023-08-12T23:00:21.508Z,9.30
2023-08-12T23:02:50.175Z,8.77
2023-08-12T23:05:19.073Z,8.18
2023-08-12T23:07:47.802Z,6.97
2023-08-12T23:10:17.855Z,8.32
2023-08-12T23:12:46.321Z,7.93
2023-08-12T23:15:17.951Z,7.55
2023-08-12T23:17:46.811Z,8.15
2023-08-12T23:20:15.744Z,7.05
2023-08-12T23:22:44.556Z,5.45
2023-08-12T23:25:14.483Z,7.70
2023-08-12T23:27:44.986Z,11.85
2023-08-12T23:30:15.470Z,7.70
2023-08-12T23:32:45.790Z,5.80
2023-08-12T23:35:18.995Z,10.45
2023-08-12T23:37:48.042Z,9.05
2023-08-12T23:40:17.921Z,8.15
2023-08-12T23:42:47.671Z,6.35
2023-08-12T23:45:15.976Z,8.57
2023-08-12T23:47:44.442Z,11.25
2023-08-12T23:50:13.748Z,8.65
2023-08-12T23:52:42.448Z,8.32
2023-08-12T23:55:11.339Z,7.50
2023-08-12T23:57:40.069Z,7.30
